Time;durP1;ratioP1;P1;durP2;ratioP2;P2;SDS_P1;SDS_P2;PMS_P1;PMS_P2;Temp;Humidity;BMP_temperature;BMP_pressure;BME280_temperature;BME280_humidity;BME280_pressure;Samples;Min_cycle;Max_cycle;Signal;HPM_P1;HPM_P2
2023/12/11 00:01:21;;;;;;;34.92;4.40;;;;;;;;;;5001064;28;21616;-56
2023/12/11 00:03:47;;;;;;;33.38;5.72;;;;;;;;;;5002019;28;20032;-57
2023/12/11 00:06:13;;;;;;;34.40;5.55;;;;;;;;;;5002016;28;20493;-57
2023/12/11 00:08:39;;;;;;;38.45;5.97;;;;;;;;;;4998221;28;20764;-59
2023/12/11 00:11:05;;;;;;;35.22;4.90;;;;;;;;;;4998144;28;21078;-57
2023/12/11 00:13:31;;;;;;;43.35;6.38;;;;;;;;;;5001511;28;20499;-57
2023/12/11 00:15:57;;;;;;;45.35;6.13;;;;;;;;;;4998411;28;20038;-57
2023/12/11 00:18:23;;;;;;;30.80;5.10;;;;;;;;;;4997975;28;20508;-58
2023/12/11 00:20:48;;;;;;;38.65;4.97;;;;;;;;;;4998082;28;20361;-58
2023/12/11 00:23:15;;;;;;;40.15;5.20;;;;;;;;;;4994341;28;20041;-56
2023/12/11 00:25:48;;;;;;;38.83;5.55;;;;;;;;;;4999263;28;20037;-56
2023/12/11 00:28:14;;;;;;;35.13;5.22;;;;;;;;;;4994589;28;20076;-56
2023/12/11 00:30:40;;;;;;;35.47;4.78;;;;;;;;;;4998112;28;20061;-56
2023/12/11 00:33:06;;;;;;;37.67;4.60;;;;;;;;;;4997020;28;20045;-56
2023/12/11 00:35:32;;;;;;;39.28;5.40;;;;;;;;;;4995710;28;20038;-55
2023/12/11 00:37:58;;;;;;;35.28;5.35;;;;;;;;;;4996619;28;20038;-54
2023/12/11 00:40:24;;;;;;;38.13;5.30;;;;;;;;;;4994253;28;20604;-57
2023/12/11 00:42:50;;;;;;;42.13;5.25;;;;;;;;;;4993203;28;20293;-55
2023/12/11 00:45:16;;;;;;;40.92;5.80;;;;;;;;;;4994298;28;20038;-55
2023/12/11 00:47:42;;;;;;;43.95;6.32;;;;;;;;;;5001327;28;20504;-56
2023/12/11 00:50:08;;;;;;;35.92;5.07;;;;;;;;;;4999862;28;20100;-55
2023/12/11 00:52:35;;;;;;;41.75;5.68;;;;;;;;;;5001944;28;20045;-55
2023/12/11 00:55:02;;;;;;;40.80;6.00;;;;;;;;;;4975463;28;20041;-53
2023/12/11 00:57:28;;;;;;;38.53;6.35;;;;;;;;;;4991653;28;20049;-56
2023/12/11 00:59:54;;;;;;;39.45;5.43;;;;;;;;;;4992485;28;20146;-55
2023/12/11 01:02:20;;;;;;;50.63;7.20;;;;;;;;;;4991304;28;20076;-57
2023/12/11 01:04:46;;;;;;;33.85;5.30;;;;;;;;;;4978200;28;20034;-58
2023/12/11 01:07:12;;;;;;;32.92;4.78;;;;;;;;;;4996169;28;20549;-56
2023/12/11 01:09:38;;;;;;;40.38;5.68;;;;;;;;;;4997389;28;20390;-57
2023/12/11 01:12:04;;;;;;;39.83;5.80;;;;;;;;;;5001330;28;20141;-56
2023/12/11 01:14:31;;;;;;;49.42;7.15;;;;;;;;;;4992951;28;20049;-56
2023/12/11 01:16:57;;;;;;;46.25;6.22;;;;;;;;;;4995464;28;20120;-56
2023/12/11 01:19:22;;;;;;;37.88;6.13;;;;;;;;;;4990390;28;20553;-57
2023/12/11 01:21:48;;;;;;;36.35;6.40;;;;;;;;;;4996549;28;20430;-58
2023/12/11 01:24:14;;;;;;;39.83;6.28;;;;;;;;;;4994190;28;20038;-57
2023/12/11 01:26:40;;;;;;;40.97;6.00;;;;;;;;;;4994890;28;20500;-57
2023/12/11 01:29:06;;;;;;;48.25;5.53;;;;;;;;;;4994181;28;20034;-57
2023/12/11 01:31:32;;;;;;;42.15;6.00;;;;;;;;;;4994691;28;20060;-58
2023/12/11 01:33:58;;;;;;;40.35;5.35;;;;;;;;;;4994586;28;20049;-57
2023/12/11 01:36:24;;;;;;;39.60;5.45;;;;;;;;;;4990516;28;20038;-57
2023/12/11 01:38:50;;;;;;;35.30;5.57;;;;;;;;;;4994687;28;20038;-57
2023/12/11 01:41:17;;;;;;;44.83;5.30;;;;;;;;;;4992272;28;20050;-57
2023/12/11 01:43:51;;;;;;;37.20;5.05;;;;;;;;;;4995403;28;20100;-57
2023/12/11 01:46:20;;;;;;;44.13;5.90;;;;;;;;;;4992047;28;20116;-58
2023/12/11 01:48:46;;;;;;;43.00;6.10;;;;;;;;;;4994545;28;20030;-57
2023/12/11 01:51:13;;;;;;;41.45;5.88;;;;;;;;;;4990472;28;20124;-58
2023/12/11 01:53:39;;;;;;;48.80;6.70;;;;;;;;;;4988996;28;20116;-56
2023/12/11 01:56:05;;;;;;;43.58;5.45;;;;;;;;;;4992007;28;20814;-58
2023/12/11 01:58:31;;;;;;;44.53;5.57;;;;;;;;;;4993180;28;20030;-55
2023/12/11 02:00:58;;;;;;;49.65;5.78;;;;;;;;;;4993908;28;20046;-58
2023/12/11 02:03:24;;;;;;;31.55;4.80;;;;;;;;;;4992858;28;20038;-58
2023/12/11 02:05:50;;;;;;;44.92;6.50;;;;;;;;;;4994986;28;20038;-58
2023/12/11 02:08:16;;;;;;;43.47;6.03;;;;;;;;;;4991897;28;20040;-56
2023/12/11 02:10:42;;;;;;;35.17;5.13;;;;;;;;;;4989499;28;20065;-57
2023/12/11 02:13:08;;;;;;;35.95;5.60;;;;;;;;;;4996245;28;20535;-56
2023/12/11 02:15:44;;;;;;;40.38;6.25;;;;;;;;;;4992523;28;20046;-57
2023/12/11 02:18:12;;;;;;;48.88;5.88;;;;;;;;;;4994472;28;20034;-57
2023/12/11 02:20:39;;;;;;;43.65;7.03;;;;;;;;;;4991337;28;20046;-58
2023/12/11 02:23:09;;;;;;;38.17;6.13;;;;;;;;;;4970188;28;20054;-57
2023/12/11 02:25:36;;;;;;;51.92;6.22;;;;;;;;;;4957025;28;20027;-57
2023/12/11 02:28:03;;;;;;;45.92;6.80;;;;;;;;;;4956845;28;20042;-57
2023/12/11 02:30:31;;;;;;;44.83;5.70;;;;;;;;;;4956815;28;20314;-57
2023/12/11 02:32:57;;;;;;;39.88;5.40;;;;;;;;;;4959426;28;20113;-56
2023/12/11 02:35:23;;;;;;;40.58;4.95;;;;;;;;;;4954695;28;20045;-58
2023/12/11 02:37:49;;;;;;;45.58;5.85;;;;;;;;;;4958942;28;20076;-57
2023/12/11 02:40:15;;;;;;;43.83;5.97;;;;;;;;;;4956394;28;20039;-58
2023/12/11 02:42:47;;;;;;;51.28;5.47;;;;;;;;;;4957841;28;20046;-56
2023/12/11 02:45:14;;;;;;;45.77;6.87;;;;;;;;;;4954562;28;20035;-55
2023/12/11 02:47:39;;;;;;;38.35;5.57;;;;;;;;;;4956032;28;20636;-58
2023/12/11 02:50:06;;;;;;;35.03;5.20;;;;;;;;;;4954841;28;20505;-57
2023/12/11 02:52:32;;;;;;;39.97;5.35;;;;;;;;;;4958014;28;20563;-57
2023/12/11 02:54:58;;;;;;;52.15;6.60;;;;;;;;;;4955619;28;20039;-58
2023/12/11 02:57:24;;;;;;;45.72;5.47;;;;;;;;;;4949087;28;20034;-58
2023/12/11 02:59:49;;;;;;;47.42;6.68;;;;;;;;;;4954830;28;20518;-57
2023/12/11 03:02:15;;;;;;;36.85;5.13;;;;;;;;;;4950986;28;20531;-56
2023/12/11 03:04:41;;;;;;;37.00;5.55;;;;;;;;;;4952503;28;20466;-57
2023/12/11 03:07:07;;;;;;;40.13;5.75;;;;;;;;;;4956452;28;20213;-58
2023/12/11 03:09:33;;;;;;;37.55;5.53;;;;;;;;;;4950649;28;20086;-56
2023/12/11 03:11:59;;;;;;;43.35;5.95;;;;;;;;;;4956270;28;20262;-58
2023/12/11 03:14:25;;;;;;;46.25;5.20;;;;;;;;;;4955236;28;20046;-58
2023/12/11 03:16:51;;;;;;;40.70;4.82;;;;;;;;;;4958212;28;20105;-58
2023/12/11 03:19:17;;;;;;;33.40;4.95;;;;;;;;;;4953296;28;20043;-57
2023/12/11 03:21:43;;;;;;;29.60;4.90;;;;;;;;;;4956620;28;20049;-56
2023/12/11 03:24:09;;;;;;;39.80;5.72;;;;;;;;;;4993229;28;20048;-56
2023/12/11 03:26:35;;;;;;;46.17;5.57;;;;;;;;;;4997348;28;20029;-57
2023/12/11 03:29:01;;;;;;;43.90;6.22;;;;;;;;;;4999736;28;20103;-57
2023/12/11 03:31:27;;;;;;;39.75;4.90;;;;;;;;;;4997214;28;20502;-57
2023/12/11 03:33:53;;;;;;;41.53;5.97;;;;;;;;;;4997815;28;20405;-56
2023/12/11 03:36:19;;;;;;;36.05;5.32;;;;;;;;;;4999808;28;20473;-55
2023/12/11 03:38:45;;;;;;;46.45;5.97;;;;;;;;;;5000318;28;20528;-55
2023/12/11 03:41:11;;;;;;;50.42;6.13;;;;;;;;;;4995748;28;20146;-56
2023/12/11 03:43:37;;;;;;;36.05;4.95;;;;;;;;;;4996116;28;20072;-58
2023/12/11 03:46:03;;;;;;;38.47;5.00;;;;;;;;;;4997114;28;20033;-57
2023/12/11 03:48:29;;;;;;;45.70;5.72;;;;;;;;;;4997593;28;20705;-57
2023/12/11 03:50:55;;;;;;;45.95;5.88;;;;;;;;;;4999800;28;20362;-57
2023/12/11 03:53:21;;;;;;;32.95;4.88;;;;;;;;;;5000500;28;20355;-58
2023/12/11 03:55:47;;;;;;;46.03;6.18;;;;;;;;;;4997624;28;20446;-58
2023/12/11 03:58:13;;;;;;;45.75;6.97;;;;;;;;;;4999889;28;20038;-57
2023/12/11 04:00:39;;;;;;;42.67;5.75;;;;;;;;;;4999859;28;20043;-56
2023/12/11 04:03:05;;;;;;;38.40;4.97;;;;;;;;;;4996573;28;20190;-58
2023/12/11 04:05:31;;;;;;;43.92;5.55;;;;;;;;;;4998332;28;20033;-58
2023/12/11 04:07:57;;;;;;;52.33;5.97;;;;;;;;;;4998394;28;20497;-57
2023/12/11 04:10:23;;;;;;;37.92;5.32;;;;;;;;;;4996983;28;20057;-58
2023/12/11 04:12:49;;;;;;;42.80;4.65;;;;;;;;;;4996289;28;20059;-58
2023/12/11 04:15:15;;;;;;;36.53;4.85;;;;;;;;;;4994746;28;20041;-58
2023/12/11 04:17:43;;;;;;;35.78;5.07;;;;;;;;;;4996227;28;20553;-58
2023/12/11 04:20:09;;;;;;;28.80;4.30;;;;;;;;;;4997502;28;20044;-57
2023/12/11 04:22:35;;;;;;;37.08;4.65;;;;;;;;;;4999711;28;20056;-58
2023/12/11 04:25:01;;;;;;;35.13;5.70;;;;;;;;;;5000205;28;20037;-56
2023/12/11 04:27:27;;;;;;;32.53;4.72;;;;;;;;;;4998862;28;20046;-58
2023/12/11 04:29:53;;;;;;;39.95;4.82;;;;;;;;;;4996937;28;20045;-58
2023/12/11 04:32:19;;;;;;;39.80;5.10;;;;;;;;;;4995910;28;20037;-56
2023/12/11 04:34:45;;;;;;;37.17;4.75;;;;;;;;;;4994009;28;20227;-56
2023/12/11 04:37:11;;;;;;;42.72;5.35;;;;;;;;;;4995297;28;20595;-57
2023/12/11 04:39:37;;;;;;;40.25;5.50;;;;;;;;;;4996534;28;20120;-55
2023/12/11 04:42:03;;;;;;;41.30;5.40;;;;;;;;;;4997350;28;20069;-57
2023/12/11 04:44:29;;;;;;;42.50;6.20;;;;;;;;;;4999546;28;20711;-56
2023/12/11 04:46:55;;;;;;;46.28;5.50;;;;;;;;;;4999707;28;20665;-57
2023/12/11 04:49:21;;;;;;;31.08;5.05;;;;;;;;;;4994310;28;20420;-57
2023/12/11 04:51:47;;;;;;;29.80;4.32;;;;;;;;;;4993568;28;20045;-56
2023/12/11 04:54:13;;;;;;;31.20;4.05;;;;;;;;;;4992922;28;20036;-54
2023/12/11 04:56:39;;;;;;;27.98;4.57;;;;;;;;;;4998069;28;20722;-55
2023/12/11 04:59:05;;;;;;;32.60;4.13;;;;;;;;;;4995208;28;20052;-57
2023/12/11 05:01:30;;;;;;;30.13;4.45;;;;;;;;;;4979303;28;20044;-55
2023/12/11 05:03:56;;;;;;;35.00;5.05;;;;;;;;;;4995978;28;20038;-55
2023/12/11 05:06:22;;;;;;;31.60;4.07;;;;;;;;;;4995829;28;20489;-56
2023/12/11 05:08:48;;;;;;;23.77;4.03;;;;;;;;;;4995580;28;20533;-56
2023/12/11 05:11:14;;;;;;;30.55;4.85;;;;;;;;;;4997422;28;20384;-56
2023/12/11 05:13:40;;;;;;;30.48;4.22;;;;;;;;;;4994446;28;20068;-56
2023/12/11 05:16:06;;;;;;;32.78;4.63;;;;;;;;;;4993627;28;20386;-56
2023/12/11 05:18:32;;;;;;;39.22;5.78;;;;;;;;;;4995151;28;20486;-57
2023/12/11 05:20:58;;;;;;;34.00;4.55;;;;;;;;;;4993047;28;20034;-56
2023/12/11 05:23:24;;;;;;;33.92;5.32;;;;;;;;;;4996241;28;20096;-56
2023/12/11 05:25:50;;;;;;;29.30;4.60;;;;;;;;;;5000141;28;20149;-56
2023/12/11 05:28:16;;;;;;;35.60;5.75;;;;;;;;;;4999363;28;20034;-57
2023/12/11 05:30:42;;;;;;;35.42;5.13;;;;;;;;;;5000460;28;20048;-56
2023/12/11 05:33:09;;;;;;;22.50;3.97;;;;;;;;;;4998972;28;20089;-56
2023/12/11 05:35:35;;;;;;;29.98;5.43;;;;;;;;;;4998557;28;20038;-56
2023/12/11 05:38:01;;;;;;;41.42;5.72;;;;;;;;;;4995530;28;20148;-55
2023/12/11 05:40:27;;;;;;;37.85;5.45;;;;;;;;;;4993917;28;20409;-54
2023/12/11 05:42:53;;;;;;;32.33;4.63;;;;;;;;;;4993714;28;20103;-56
2023/12/11 05:45:19;;;;;;;34.35;5.07;;;;;;;;;;4974181;28;21832;-56
2023/12/11 05:47:45;;;;;;;28.70;4.82;;;;;;;;;;4997466;28;20041;-56
2023/12/11 05:50:12;;;;;;;31.20;4.78;;;;;;;;;;4999740;28;20590;-55
2023/12/11 05:52:38;;;;;;;32.80;4.30;;;;;;;;;;4995759;28;20409;-56
2023/12/11 05:55:04;;;;;;;38.33;4.95;;;;;;;;;;4996830;28;20033;-55
2023/12/11 05:57:30;;;;;;;35.13;4.53;;;;;;;;;;4994838;28;20107;-55
2023/12/11 05:59:56;;;;;;;31.92;5.30;;;;;;;;;;4997354;28;20038;-55
2023/12/11 06:02:23;;;;;;;34.33;5.53;;;;;;;;;;4997076;28;20050;-56
2023/12/11 06:04:49;;;;;;;38.53;4.53;;;;;;;;;;4993524;28;20041;-56
2023/12/11 06:07:15;;;;;;;30.83;4.40;;;;;;;;;;4994859;28;20417;-56
2023/12/11 06:09:41;;;;;;;28.60;4.93;;;;;;;;;;4993903;28;20438;-57
2023/12/11 06:12:08;;;;;;;34.38;4.88;;;;;;;;;;4993502;28;20064;-56
2023/12/11 06:14:35;;;;;;;30.77;4.45;;;;;;;;;;4972502;28;20152;-57
2023/12/11 06:17:01;;;;;;;33.47;4.88;;;;;;;;;;4997778;28;20113;-55
2023/12/11 06:19:27;;;;;;;34.33;4.65;;;;;;;;;;4997427;28;20513;-57
2023/12/11 06:21:53;;;;;;;31.88;4.53;;;;;;;;;;4998453;28;20049;-56
2023/12/11 06:24:19;;;;;;;34.35;5.45;;;;;;;;;;4996546;28;20501;-57
2023/12/11 06:26:45;;;;;;;37.72;5.20;;;;;;;;;;4994398;28;20056;-54
2023/12/11 06:29:12;;;;;;;34.78;5.13;;;;;;;;;;4983546;28;20498;-57
2023/12/11 06:31:38;;;;;;;27.98;4.88;;;;;;;;;;4994237;28;20036;-55
2023/12/11 06:34:04;;;;;;;35.55;4.68;;;;;;;;;;4996265;28;20030;-56
2023/12/11 06:36:31;;;;;;;41.80;6.15;;;;;;;;;;4995852;28;20091;-56
2023/12/11 06:38:57;;;;;;;27.17;4.60;;;;;;;;;;4997514;28;20905;-57
2023/12/11 06:41:23;;;;;;;33.40;4.25;;;;;;;;;;4989470;28;20038;-56
2023/12/11 06:43:52;;;;;;;39.50;4.85;;;;;;;;;;4997507;28;20961;-54
2023/12/11 06:46:19;;;;;;;37.47;5.32;;;;;;;;;;4994579;28;20038;-56
2023/12/11 06:48:45;;;;;;;29.50;4.47;;;;;;;;;;4992697;28;20046;-56
2023/12/11 06:51:11;;;;;;;34.70;5.32;;;;;;;;;;4991615;28;20037;-56
2023/12/11 06:53:37;;;;;;;41.05;5.35;;;;;;;;;;4997774;28;20527;-57
2023/12/11 06:56:03;;;;;;;46.45;5.45;;;;;;;;;;4992639;28;20037;-56
2023/12/11 06:58:30;;;;;;;33.30;5.40;;;;;;;;;;4990617;28;20159;-56
2023/12/11 07:00:56;;;;;;;28.60;4.18;;;;;;;;;;4974243;28;21155;-58
2023/12/11 07:03:22;;;;;;;34.38;4.78;;;;;;;;;;4993053;28;20045;-58
2023/12/11 07:05:48;;;;;;;38.67;5.13;;;;;;;;;;4994905;28;20520;-59
2023/12/11 07:08:14;;;;;;;37.70;5.78;;;;;;;;;;4994743;28;20046;-58
2023/12/11 07:10:40;;;;;;;45.08;5.90;;;;;;;;;;4996892;28;20502;-57
2023/12/11 07:13:06;;;;;;;39.88;5.03;;;;;;;;;;4981357;28;20552;-56
2023/12/11 07:15:32;;;;;;;39.05;5.28;;;;;;;;;;4992425;28;20033;-56
2023/12/11 07:17:58;;;;;;;30.10;4.95;;;;;;;;;;4991585;28;20460;-57
2023/12/11 07:20:24;;;;;;;33.00;4.70;;;;;;;;;;4992408;28;20111;-56
2023/12/11 07:22:50;;;;;;;31.20;4.60;;;;;;;;;;4999886;28;20042;-57
2023/12/11 07:25:16;;;;;;;31.77;4.45;;;;;;;;;;4996392;28;20121;-56
2023/12/11 07:27:45;;;;;;;37.97;4.55;;;;;;;;;;4998204;28;20041;-58
2023/12/11 07:30:11;;;;;;;36.17;5.55;;;;;;;;;;4995564;28;20464;-58
2023/12/11 07:32:37;;;;;;;32.10;5.22;;;;;;;;;;4998844;28;20481;-57
2023/12/11 07:35:03;;;;;;;35.50;4.68;;;;;;;;;;4995884;28;20041;-58
2023/12/11 07:37:29;;;;;;;30.02;5.03;;;;;;;;;;4998279;28;20143;-57
2023/12/11 07:39:55;;;;;;;40.92;5.65;;;;;;;;;;4996888;28;20049;-58
2023/12/11 07:42:22;;;;;;;32.58;4.80;;;;;;;;;;4994616;28;20552;-57
2023/12/11 07:44:48;;;;;;;40.22;4.88;;;;;;;;;;4992663;28;20133;-57
2023/12/11 07:47:14;;;;;;;40.05;4.78;;;;;;;;;;4996087;28;20084;-58
2023/12/11 07:49:40;;;;;;;34.10;4.60;;;;;;;;;;4997782;28;20495;-58
2023/12/11 07:52:06;;;;;;;38.20;5.28;;;;;;;;;;4996367;28;20056;-57
2023/12/11 07:54:32;;;;;;;34.45;4.57;;;;;;;;;;4997781;28;20045;-58
2023/12/11 07:56:58;;;;;;;38.33;5.38;;;;;;;;;;4997657;28;20473;-57
2023/12/11 07:59:24;;;;;;;38.03;4.88;;;;;;;;;;4995903;28;20038;-57
2023/12/11 08:01:52;;;;;;;42.83;5.47;;;;;;;;;;4996441;28;20045;-60
2023/12/11 08:04:18;;;;;;;33.28;5.07;;;;;;;;;;4993734;28;20053;-61
2023/12/11 08:06:44;;;;;;;35.78;4.97;;;;;;;;;;4999751;28;20457;-61
2023/12/11 08:09:11;;;;;;;34.67;5.10;;;;;;;;;;4994447;28;20044;-60
2023/12/11 08:11:37;;;;;;;42.63;4.68;;;;;;;;;;4994984;28;20694;-60
2023/12/11 08:14:03;;;;;;;39.10;5.18;;;;;;;;;;5000162;28;20069;-58
2023/12/11 08:16:29;;;;;;;34.95;5.40;;;;;;;;;;5002432;28;20043;-60
2023/12/11 08:18:55;;;;;;;33.05;5.38;;;;;;;;;;5001080;28;20074;-59
2023/12/11 08:21:21;;;;;;;28.75;4.63;;;;;;;;;;4997660;28;21500;-60
2023/12/11 08:23:47;;;;;;;35.08;6.00;;;;;;;;;;5000255;28;20064;-60
2023/12/11 08:26:20;;;;;;;36.72;5.53;;;;;;;;;;4999012;28;20072;-57
2023/12/11 08:28:46;;;;;;;32.88;4.47;;;;;;;;;;4999472;28;20541;-59
2023/12/11 08:31:12;;;;;;;38.50;5.68;;;;;;;;;;4999588;28;20538;-57
2023/12/11 08:33:38;;;;;;;29.55;4.32;;;;;;;;;;5001327;28;20121;-59
2023/12/11 08:36:05;;;;;;;40.88;6.15;;;;;;;;;;4998726;28;20046;-60
2023/12/11 08:38:31;;;;;;;29.38;4.93;;;;;;;;;;4999184;28;20034;-60
2023/12/11 08:40:57;;;;;;;35.00;4.35;;;;;;;;;;5004043;28;20048;-60
2023/12/11 08:43:23;;;;;;;31.33;4.32;;;;;;;;;;4997794;28;20128;-59
2023/12/11 08:45:49;;;;;;;33.38;4.57;;;;;;;;;;4998949;28;20497;-59
2023/12/11 08:48:15;;;;;;;35.55;4.50;;;;;;;;;;4993697;28;20044;-60
2023/12/11 08:50:41;;;;;;;29.05;4.03;;;;;;;;;;5003141;28;20129;-60
2023/12/11 08:53:07;;;;;;;33.60;4.85;;;;;;;;;;4997226;28;20109;-60
2023/12/11 08:55:33;;;;;;;30.42;4.30;;;;;;;;;;5000575;28;20393;-60
2023/12/11 08:57:59;;;;;;;32.03;4.45;;;;;;;;;;4999237;28;20048;-59
2023/12/11 09:00:25;;;;;;;36.67;4.65;;;;;;;;;;4997996;28;20037;-59
2023/12/11 09:02:51;;;;;;;35.25;4.30;;;;;;;;;;4998530;28;20041;-59
2023/12/11 09:05:18;;;;;;;26.75;5.13;;;;;;;;;;4998925;28;20058;-59
2023/12/11 09:07:44;;;;;;;38.10;5.25;;;;;;;;;;5002609;28;20121;-59
2023/12/11 09:10:10;;;;;;;26.08;3.88;;;;;;;;;;4981890;28;20682;-59
2023/12/11 09:12:36;;;;;;;29.17;4.63;;;;;;;;;;5000227;28;20049;-60
2023/12/11 09:15:03;;;;;;;29.42;4.20;;;;;;;;;;4994308;28;20038;-58
2023/12/11 09:17:29;;;;;;;30.65;5.00;;;;;;;;;;4994070;28;20456;-59
2023/12/11 09:19:55;;;;;;;37.97;4.88;;;;;;;;;;4998202;28;20041;-60
2023/12/11 09:22:21;;;;;;;32.85;4.85;;;;;;;;;;5001396;28;20456;-58
2023/12/11 09:24:47;;;;;;;31.27;5.15;;;;;;;;;;5007180;28;20034;-58
2023/12/11 09:27:13;;;;;;;29.15;4.63;;;;;;;;;;4998618;28;20379;-57
2023/12/11 09:29:39;;;;;;;30.58;3.90;;;;;;;;;;4999286;28;20065;-58
2023/12/11 09:32:05;;;;;;;32.67;4.65;;;;;;;;;;4996221;28;20034;-57
2023/12/11 09:34:31;;;;;;;34.95;4.63;;;;;;;;;;4996054;28;20050;-58
2023/12/11 09:36:58;;;;;;;40.10;5.15;;;;;;;;;;4995513;28;20033;-56
2023/12/11 09:39:24;;;;;;;23.52;4.85;;;;;;;;;;5001218;28;20050;-57
2023/12/11 09:41:50;;;;;;;33.78;4.32;;;;;;;;;;5005679;28;20124;-58
2023/12/11 09:44:17;;;;;;;27.98;4.82;;;;;;;;;;4997667;28;20456;-58
2023/12/11 09:47:06;;;;;;;28.10;4.75;;;;;;;;;;4983808;28;20324;-57
2023/12/11 09:49:32;;;;;;;36.25;5.18;;;;;;;;;;4968737;28;20030;-58
2023/12/11 09:51:58;;;;;;;31.52;4.68;;;;;;;;;;4993870;28;20072;-60
2023/12/11 09:54:25;;;;;;;37.65;5.80;;;;;;;;;;4993964;28;20103;-59
2023/12/11 09:56:51;;;;;;;34.50;5.15;;;;;;;;;;5001725;28;20114;-60
2023/12/11 09:59:18;;;;;;;35.75;5.10;;;;;;;;;;4998044;28;20048;-60
2023/12/11 10:01:45;;;;;;;23.60;4.10;;;;;;;;;;4994552;28;20561;-57
2023/12/11 10:04:11;;;;;;;30.42;4.80;;;;;;;;;;4995385;28;20064;-58
2023/12/11 10:06:37;;;;;;;26.60;5.47;;;;;;;;;;4991818;28;20413;-57
2023/12/11 10:09:04;;;;;;;28.40;4.65;;;;;;;;;;4996210;28;20057;-58
2023/12/11 10:11:30;;;;;;;24.42;5.05;;;;;;;;;;4999178;28;20037;-57
2023/12/11 10:14:01;;;;;;;29.15;4.68;;;;;;;;;;4998585;28;20021;-58
2023/12/11 10:16:29;;;;;;;29.80;4.40;;;;;;;;;;4993795;28;20587;-58
2023/12/11 10:18:55;;;;;;;30.77;4.57;;;;;;;;;;4997359;28;20469;-58
2023/12/11 10:21:24;;;;;;;32.70;4.93;;;;;;;;;;4997907;28;20038;-58
2023/12/11 10:24:06;;;;;;;31.27;4.47;;;;;;;;;;4996426;28;20034;-56
2023/12/11 10:26:33;;;;;;;23.02;4.40;;;;;;;;;;5000701;28;20041;-57
2023/12/11 10:29:19;;;;;;;32.22;5.07;;;;;;;;;;4997155;28;20033;-57
2023/12/11 10:31:45;;;;;;;25.00;4.38;;;;;;;;;;4999634;28;20030;-59
2023/12/11 10:34:11;;;;;;;25.40;5.03;;;;;;;;;;4997934;28;20037;-59
2023/12/11 10:36:47;;;;;;;35.33;5.13;;;;;;;;;;4998478;28;20623;-60
2023/12/11 10:39:13;;;;;;;33.38;4.70;;;;;;;;;;4994632;28;20033;-59
2023/12/11 10:41:39;;;;;;;27.30;4.07;;;;;;;;;;4996549;28;20057;-59
2023/12/11 10:44:05;;;;;;;20.48;3.63;;;;;;;;;;4996540;28;20038;-57
2023/12/11 10:46:31;;;;;;;20.15;3.72;;;;;;;;;;4998708;28;20038;-57
2023/12/11 10:49:02;;;;;;;22.27;3.95;;;;;;;;;;4999399;28;20117;-58
2023/12/11 10:51:28;;;;;;;21.02;4.13;;;;;;;;;;4996003;28;20050;-57
2023/12/11 10:53:54;;;;;;;26.60;4.60;;;;;;;;;;4996089;28;20033;-58
2023/12/11 10:56:20;;;;;;;25.98;5.15;;;;;;;;;;4996130;28;20421;-58
2023/12/11 10:58:48;;;;;;;26.67;4.78;;;;;;;;;;4992581;28;20451;-58
2023/12/11 11:01:17;;;;;;;21.20;4.60;;;;;;;;;;4994764;28;20326;-57
2023/12/11 11:03:43;;;;;;;22.20;3.85;;;;;;;;;;4996463;28;20049;-59
2023/12/11 11:06:09;;;;;;;20.40;3.80;;;;;;;;;;5002624;28;20033;-59
2023/12/11 11:08:51;;;;;;;20.23;3.85;;;;;;;;;;5001203;28;20041;-61
2023/12/11 11:11:17;;;;;;;18.00;4.10;;;;;;;;;;4993333;28;20627;-60
2023/12/11 11:14:02;;;;;;;24.63;4.72;;;;;;;;;;4993957;28;20123;-60
2023/12/11 11:16:47;;;;;;;14.80;3.83;;;;;;;;;;4992583;28;20227;-60
2023/12/11 11:19:13;;;;;;;23.40;3.92;;;;;;;;;;4998309;28;20033;-59
2023/12/11 11:21:39;;;;;;;37.47;4.53;;;;;;;;;;5001880;28;20041;-59
2023/12/11 11:24:25;;;;;;;19.05;3.65;;;;;;;;;;4995135;28;20045;-61
2023/12/11 11:26:51;;;;;;;16.65;3.53;;;;;;;;;;4994557;28;20176;-60
2023/12/11 11:29:37;;;;;;;18.35;4.43;;;;;;;;;;4998543;28;20353;-59
2023/12/11 11:32:03;;;;;;;19.88;4.18;;;;;;;;;;4994778;28;20033;-61
2023/12/11 11:34:43;;;;;;;22.48;4.35;;;;;;;;;;4995590;28;20037;-61
2023/12/11 11:37:14;;;;;;;20.20;3.80;;;;;;;;;;5002003;28;20136;-60
2023/12/11 11:39:59;;;;;;;21.20;4.07;;;;;;;;;;5000377;28;20497;-61
2023/12/11 11:42:29;;;;;;;22.00;4.10;;;;;;;;;;4995369;28;20042;-57
2023/12/11 11:44:57;;;;;;;20.40;4.10;;;;;;;;;;4996588;28;20137;-58
2023/12/11 11:47:23;;;;;;;19.48;3.97;;;;;;;;;;4996263;28;20068;-56
2023/12/11 11:49:49;;;;;;;20.23;4.38;;;;;;;;;;4996490;28;20038;-56
2023/12/11 11:52:18;;;;;;;13.40;2.42;;;;;;;;;;4999472;28;20567;-58
2023/12/11 11:54:44;;;;;;;14.18;1.85;;;;;;;;;;4996284;28;20035;-57
2023/12/11 11:57:10;;;;;;;9.82;1.77;;;;;;;;;;5002006;28;20122;-55
2023/12/11 11:59:43;;;;;;;7.43;1.40;;;;;;;;;;4999765;28;20038;-55
2023/12/11 12:02:08;;;;;;;16.20;1.75;;;8.60;99.90;;;;;;5003237;28;20042;-57
2023/12/11 12:04:35;;;;;;;7.55;1.40;;;8.50;99.90;;;;;;5003320;28;20115;-55
2023/12/11 12:07:02;;;;;;;5.60;1.23;;;8.30;99.90;;;;;;4997023;28;20121;-56
2023/12/11 12:09:32;;;;;;;12.63;1.52;;;8.30;99.90;;;;;;4999271;28;20054;-57
2023/12/11 12:11:59;;;;;;;8.77;1.23;;;;;;;;;;5003958;28;20528;-61
2023/12/11 12:14:27;;;;;;;6.32;1.67;;;;;;;;;;5002619;28;20116;-59
2023/12/11 12:16:54;;;;;;;11.52;1.50;;;8.30;99.90;;;;;;4996163;28;20100;-60
2023/12/11 12:19:31;;;;;;;5.97;1.50;;;8.40;99.90;;;;;;5000911;28;20120;-59
2023/12/11 12:21:58;;;;;;;7.55;1.50;;;8.20;99.90;;;;;;5001089;28;20584;-60
2023/12/11 12:24:24;;;;;;;7.93;1.95;;;8.40;99.90;;;;;;4999364;28;20390;-58
2023/12/11 12:27:01;;;;;;;4.03;1.42;;;8.40;99.90;;;;;;5000538;28;20037;-58
2023/12/11 12:29:33;;;;;;;7.30;1.60;;;8.40;99.90;;;;;;5000264;28;20121;-58
2023/12/11 12:31:59;;;;;;;10.80;2.13;;;8.50;99.90;;;;;;4996664;28;20045;-57
2023/12/11 12:34:27;;;;;;;6.85;1.95;;;8.40;99.90;;;;;;5000210;28;20238;-61
2023/12/11 12:36:58;;;;;;;12.82;2.17;;;8.40;99.90;;;;;;5008699;28;20124;-61
2023/12/11 12:39:24;;;;;;;11.93;2.30;;;8.40;99.90;;;;;;4996460;28;20045;-61
2023/12/11 12:41:50;;;;;;;6.88;2.03;;;8.50;99.90;;;;;;4998107;28;20035;-61
2023/12/11 12:44:19;;;;;;;6.90;1.60;;;8.50;99.90;;;;;;4996254;28;20041;-60
2023/12/11 12:46:46;;;;;;;10.40;2.33;;;8.50;99.90;;;;;;4997169;28;20593;-59
2023/12/11 12:49:14;;;;;;;12.80;2.70;;;8.60;99.90;;;;;;4994948;28;20607;-60
2023/12/11 12:51:44;;;;;;;11.45;3.15;;;8.50;99.90;;;;;;4998747;28;20059;-59
2023/12/11 12:54:10;;;;;;;12.60;2.97;;;8.50;99.90;;;;;;4996931;28;20037;-59
2023/12/11 12:56:36;;;;;;;15.90;3.42;;;8.50;99.90;;;;;;4996085;28;20025;-60
2023/12/11 12:59:02;;;;;;;10.65;3.13;;;8.70;99.90;;;;;;4999456;28;20471;-60
2023/12/11 13:01:37;;;;;;;15.63;3.50;;;8.70;99.90;;;;;;4997929;28;22145;-60
2023/12/11 13:04:04;;;;;;;14.77;3.63;;;8.70;99.90;;;;;;4994175;28;20042;-59
2023/12/11 13:06:30;;;;;;;12.85;4.32;;;8.80;99.90;;;;;;5001506;28;20146;-60
2023/12/11 13:08:55;;;;;;;19.17;4.00;;;8.80;99.90;;;;;;5001823;28;20117;-60
2023/12/11 13:11:21;;;;;;;23.98;3.45;;;8.90;99.90;;;;;;4997429;28;20077;-59
2023/12/11 13:13:56;;;;;;;16.83;3.85;;;8.90;99.90;;;;;;4991415;28;20034;-58
2023/12/11 13:16:22;;;;;;;16.80;3.42;;;9.00;99.90;;;;;;4992938;28;20532;-61
2023/12/11 13:18:51;;;;;;;15.88;3.17;;;9.00;99.90;;;;;;4998176;28;20038;-61
2023/12/11 13:21:19;;;;;;;14.05;3.72;;;9.00;99.90;;;;;;4997612;28;20077;-57
2023/12/11 13:23:45;;;;;;;17.75;3.58;;;9.00;99.90;;;;;;4996046;28;20041;-55
2023/12/11 13:26:11;;;;;;;16.85;3.25;;;9.00;99.90;;;;;;4996125;28;20488;-57
2023/12/11 13:28:36;;;;;;;15.85;2.90;;;9.00;99.90;;;;;;4995214;28;20045;-56
2023/12/11 13:31:02;;;;;;;17.98;2.97;;;;;;;;;;4993122;28;20144;-57
2023/12/11 13:33:29;;;;;;;14.18;2.83;;;9.10;99.90;;;;;;4996502;28;20042;-61
2023/12/11 13:35:55;;;;;;;15.07;3.15;;;;;;;;;;4998699;28;20038;-60
2023/12/11 13:38:21;;;;;;;11.43;2.95;;;;;;;;;;5000907;28;21371;-60
2023/12/11 13:40:47;;;;;;;8.73;2.50;;;;;;;;;;5000243;28;20041;-59
2023/12/11 13:43:13;;;;;;;18.20;3.20;;;;;;;;;;5003526;28;20161;-59
2023/12/11 13:45:39;;;;;;;15.68;2.70;;;;;;;;;;5001319;28;20444;-59
2023/12/11 13:48:08;;;;;;;12.63;2.47;;;;;;;;;;4997572;28;20038;-60
2023/12/11 13:50:35;;;;;;;10.35;2.40;;;;;;;;;;4993688;28;20041;-59
2023/12/11 13:53:01;;;;;;;15.88;4.40;;;9.50;99.90;;;;;;4993573;28;20052;-60
2023/12/11 13:55:27;;;;;;;20.98;6.70;;;9.00;99.90;;;;;;4995014;28;20469;-60
2023/12/11 13:57:53;;;;;;;30.50;11.40;;;9.60;99.90;;;;;;4993749;28;20533;-59
2023/12/11 14:00:18;;;;;;;16.63;4.72;;;9.60;99.90;;;;;;4996626;28;20040;-60
2023/12/11 14:02:44;;;;;;;11.15;2.50;;;9.60;99.90;;;;;;4998023;28;20068;-56
2023/12/11 14:05:12;;;;;;;7.93;3.05;;;9.60;99.90;;;;;;4998676;28;20317;-58
2023/12/11 14:07:38;;;;;;;14.23;3.45;;;9.60;99.90;;;;;;4996361;28;20046;-56
2023/12/11 14:10:05;;;;;;;17.38;4.40;;;9.70;99.90;;;;;;4993066;28;20111;-57
2023/12/11 14:12:31;;;;;;;16.13;3.05;;;;;;;;;;4998491;28;20041;-57
2023/12/11 14:14:59;;;;;;;9.82;3.40;;;9.50;99.90;;;;;;4996248;28;20509;-57